sensor_id;sensor_type;location;lat;lon;timestamp;P1;durP1;ratioP1;P2;durP2;ratioP2
25687;SDS011;17407;51.120;3.702;2022-09-29T05:03:01;13.98;;;11.98;;
25687;SDS011;17407;51.120;3.702;2022-09-29T05:05:27;14.30;;;10.70;;
25687;SDS011;17407;51.120;3.702;2022-09-29T05:08:41;18.55;;;11.32;;
25687;SDS011;17407;51.120;3.702;2022-09-29T06:31:36;16.67;;;11.82;;
25687;SDS011;17407;51.120;3.702;2022-09-29T06:34:46;13.40;;;10.60;;
25687;SDS011;17407;51.120;3.702;2022-09-29T06:37:55;16.10;;;12.02;;
25687;SDS011;17407;51.120;3.702;2022-09-29T06:41:04;19.95;;;12.13;;
25687;SDS011;17407;51.120;3.702;2022-09-29T06:44:13;17.63;;;12.68;;
25687;SDS011;17407;51.120;3.702;2022-09-29T06:47:23;17.20;;;10.75;;
25687;SDS011;17407;51.120;3.702;2022-09-29T06:50:33;14.88;;;11.40;;
25687;SDS011;17407;51.120;3.702;2022-09-29T06:53:43;15.07;;;11.55;;
25687;SDS011;17407;51.120;3.702;2022-09-29T06:56:52;18.13;;;11.25;;
25687;SDS011;17407;51.120;3.702;2022-09-29T07:00:02;16.83;;;11.48;;
25687;SDS011;17407;51.120;3.702;2022-09-29T07:03:12;13.05;;;10.60;;
25687;SDS011;17407;51.120;3.702;2022-09-29T07:05:38;17.10;;;11.27;;
25687;SDS011;17407;51.120;3.702;2022-09-29T07:56:21;11.02;;;8.70;;
25687;SDS011;17407;51.120;3.702;2022-09-29T07:59:31;11.30;;;8.30;;
25687;SDS011;17407;51.120;3.702;2022-09-29T08:02:40;11.88;;;8.38;;
25687;SDS011;17407;51.120;3.702;2022-09-29T08:05:53;9.48;;;7.20;;
25687;SDS011;17407;51.120;3.702;2022-09-29T08:09:02;7.82;;;6.38;;
25687;SDS011;17407;51.120;3.702;2022-09-29T08:12:11;9.43;;;7.20;;
25687;SDS011;17407;51.120;3.702;2022-09-29T08:15:20;7.93;;;6.80;;
25687;SDS011;17407;51.120;3.702;2022-09-29T08:18:30;6.20;;;5.45;;
25687;SDS011;17407;51.120;3.702;2022-09-29T08:21:40;6.32;;;5.72;;
25687;SDS011;17407;51.120;3.702;2022-09-29T08:24:50;6.85;;;5.93;;
25687;SDS011;17407;51.120;3.702;2022-09-29T08:28:00;6.22;;;5.22;;
25687;SDS011;17407;51.120;3.702;2022-09-29T08:31:14;6.72;;;5.65;;
25687;SDS011;17407;51.120;3.702;2022-09-29T08:34:24;7.38;;;5.90;;
25687;SDS011;17407;51.120;3.702;2022-09-29T08:37:34;5.40;;;4.63;;
25687;SDS011;17407;51.120;3.702;2022-09-29T08:40:44;6.03;;;4.40;;
25687;SDS011;17407;51.120;3.702;2022-09-29T08:43:55;6.10;;;4.32;;
25687;SDS011;17407;51.120;3.702;2022-09-29T08:47:13;6.20;;;4.90;;
25687;SDS011;17407;51.120;3.702;2022-09-29T09:10:42;7.85;;;4.18;;
25687;SDS011;17407;51.120;3.702;2022-09-29T09:17:05;4.93;;;4.28;;
25687;SDS011;17407;51.120;3.702;2022-09-29T09:20:25;5.75;;;2.95;;
25687;SDS011;17407;51.120;3.702;2022-09-29T09:27:00;3.22;;;2.58;;
25687;SDS011;17407;51.120;3.702;2022-09-29T09:30:13;2.03;;;1.88;;
25687;SDS011;17407;51.120;3.702;2022-09-29T09:39:49;4.05;;;3.47;;
25687;SDS011;17407;51.120;3.702;2022-09-29T09:43:52;7.40;;;3.45;;
25687;SDS011;17407;51.120;3.702;2022-09-29T09:46:48;3.55;;;2.40;;
25687;SDS011;17407;51.120;3.702;2022-09-29T09:50:00;4.63;;;2.30;;
25687;SDS011;17407;51.120;3.702;2022-09-29T09:53:13;3.17;;;2.40;;
25687;SDS011;17407;51.120;3.702;2022-09-29T09:59:44;2.17;;;2.00;;
25687;SDS011;17407;51.120;3.702;2022-09-29T10:03:01;2.67;;;2.30;;
25687;SDS011;17407;51.120;3.702;2022-09-29T10:09:41;3.15;;;2.50;;
25687;SDS011;17407;51.120;3.702;2022-09-29T10:12:54;3.58;;;2.42;;
25687;SDS011;17407;51.120;3.702;2022-09-29T10:16:08;3.50;;;2.63;;
25687;SDS011;17407;51.120;3.702;2022-09-29T10:19:22;2.88;;;2.50;;
25687;SDS011;17407;51.120;3.702;2022-09-29T10:22:32;3.55;;;2.58;;
25687;SDS011;17407;51.120;3.702;2022-09-29T10:25:45;3.25;;;1.27;;
25687;SDS011;17407;51.120;3.702;2022-09-29T10:35:23;3.17;;;1.98;;
25687;SDS011;17407;51.120;3.702;2022-09-29T10:38:32;5.55;;;1.48;;
25687;SDS011;17407;51.120;3.702;2022-09-29T10:41:49;1.10;;;1.10;;
25687;SDS011;17407;51.120;3.702;2022-09-29T10:45:00;2.88;;;1.45;;
25687;SDS011;17407;51.120;3.702;2022-09-29T10:48:13;2.28;;;2.08;;
25687;SDS011;17407;51.120;3.702;2022-09-29T10:51:23;2.10;;;1.90;;
25687;SDS011;17407;51.120;3.702;2022-09-29T10:54:34;1.30;;;1.20;;
25687;SDS011;17407;51.120;3.702;2022-09-29T10:57:45;2.15;;;1.65;;
25687;SDS011;17407;51.120;3.702;2022-09-29T11:01:02;1.73;;;1.30;;
25687;SDS011;17407;51.120;3.702;2022-09-29T11:04:31;1.23;;;0.87;;
25687;SDS011;17407;51.120;3.702;2022-09-29T11:07:44;6.07;;;1.00;;
25687;SDS011;17407;51.120;3.702;2022-09-29T11:17:54;0.30;;;0.30;;
25687;SDS011;17407;51.120;3.702;2022-09-29T11:34:38;0.60;;;0.30;;
25687;SDS011;17407;51.120;3.702;2022-09-29T11:47:47;2.35;;;1.02;;
25687;SDS011;17407;51.120;3.702;2022-09-29T11:58:06;0.55;;;0.52;;
25687;SDS011;17407;51.120;3.702;2022-09-29T12:04:29;0.80;;;0.75;;
25687;SDS011;17407;51.120;3.702;2022-09-29T12:17:39;1.10;;;1.00;;
25687;SDS011;17407;51.120;3.702;2022-09-29T12:20:52;1.08;;;1.08;;
25687;SDS011;17407;51.120;3.702;2022-09-29T12:24:03;1.40;;;0.90;;
25687;SDS011;17407;51.120;3.702;2022-09-29T12:27:21;1.92;;;1.40;;
25687;SDS011;17407;51.120;3.702;2022-09-29T12:30:48;3.08;;;1.40;;
25687;SDS011;17407;51.120;3.702;2022-09-29T12:33:59;1.85;;;1.50;;
25687;SDS011;17407;51.120;3.702;2022-09-29T12:37:19;1.00;;;1.00;;
25687;SDS011;17407;51.120;3.702;2022-09-29T12:40:38;2.03;;;1.40;;
25687;SDS011;17407;51.120;3.702;2022-09-29T12:44:36;2.10;;;1.35;;
25687;SDS011;17407;51.120;3.702;2022-09-29T12:50:29;3.33;;;1.02;;
25687;SDS011;17407;51.120;3.702;2022-09-29T12:57:05;1.63;;;0.80;;
25687;SDS011;17407;51.120;3.702;2022-09-29T13:00:17;1.42;;;0.82;;
25687;SDS011;17407;51.120;3.702;2022-09-29T13:06:39;0.70;;;0.70;;
25687;SDS011;17407;51.120;3.702;2022-09-29T13:09:30;1.88;;;0.90;;
25687;SDS011;17407;51.120;3.702;2022-09-29T13:14:56;1.00;;;0.90;;
25687;SDS011;17407;51.120;3.702;2022-09-29T13:25:19;0.60;;;0.60;;
25687;SDS011;17407;51.120;3.702;2022-09-29T13:28:12;1.23;;;0.60;;
25687;SDS011;17407;51.120;3.702;2022-09-29T13:30:48;1.25;;;0.50;;
25687;SDS011;17407;51.120;3.702;2022-09-29T13:33:16;1.33;;;0.45;;
25687;SDS011;17407;51.120;3.702;2022-09-29T13:35:47;2.75;;;0.70;;
25687;SDS011;17407;51.120;3.702;2022-09-29T13:38:22;2.53;;;0.88;;
25687;SDS011;17407;51.120;3.702;2022-09-29T13:46:46;0.98;;;0.70;;
25687;SDS011;17407;51.120;3.702;2022-09-29T14:36:30;0.63;;;0.63;;
25687;SDS011;17407;51.120;3.702;2022-09-29T14:39:41;0.70;;;0.65;;
25687;SDS011;17407;51.120;3.702;2022-09-29T14:56:04;2.35;;;1.08;;
25687;SDS011;17407;51.120;3.702;2022-09-29T15:02:40;1.20;;;0.80;;
25687;SDS011;17407;51.120;3.702;2022-09-29T15:06:11;1.10;;;1.00;;
25687;SDS011;17407;51.120;3.702;2022-09-29T15:09:22;2.83;;;0.85;;
25687;SDS011;17407;51.120;3.702;2022-09-29T15:12:32;3.05;;;1.10;;
25687;SDS011;17407;51.120;3.702;2022-09-29T15:15:41;1.88;;;1.30;;
25687;SDS011;17407;51.120;3.702;2022-09-29T15:25:18;2.53;;;1.30;;
25687;SDS011;17407;51.120;3.702;2022-09-29T15:28:33;3.17;;;1.23;;
25687;SDS011;17407;51.120;3.702;2022-09-29T15:31:44;1.55;;;1.25;;
25687;SDS011;17407;51.120;3.702;2022-09-29T15:35:00;1.35;;;0.80;;
25687;SDS011;17407;51.120;3.702;2022-09-29T15:41:33;1.25;;;0.98;;
25687;SDS011;17407;51.120;3.702;2022-09-29T15:44:46;2.13;;;0.77;;
25687;SDS011;17407;51.120;3.702;2022-09-29T15:48:00;1.77;;;0.80;;
25687;SDS011;17407;51.120;3.702;2022-09-29T15:51:15;1.85;;;0.55;;
25687;SDS011;17407;51.120;3.702;2022-09-29T15:54:29;0.73;;;0.32;;
25687;SDS011;17407;51.120;3.702;2022-09-29T16:00:48;2.72;;;0.80;;
25687;SDS011;17407;51.120;3.702;2022-09-29T16:03:48;0.63;;;0.50;;
25687;SDS011;17407;51.120;3.702;2022-09-29T16:06:37;5.28;;;0.90;;
25687;SDS011;17407;51.120;3.702;2022-09-29T16:09:28;3.40;;;1.30;;
25687;SDS011;17407;51.120;3.702;2022-09-29T16:12:15;2.42;;;1.10;;
25687;SDS011;17407;51.120;3.702;2022-09-29T16:15:04;1.35;;;1.15;;
25687;SDS011;17407;51.120;3.702;2022-09-29T16:17:51;2.00;;;0.75;;
25687;SDS011;17407;51.120;3.702;2022-09-29T16:20:39;2.17;;;0.80;;
25687;SDS011;17407;51.120;3.702;2022-09-29T16:37:02;1.80;;;1.70;;
25687;SDS011;17407;51.120;3.702;2022-09-29T17:03:22;2.47;;;1.67;;
25687;SDS011;17407;51.120;3.702;2022-09-29T17:06:08;17.80;;;5.70;;
25687;SDS011;17407;51.120;3.702;2022-09-29T18:21:23;4.75;;;4.35;;
25687;SDS011;17407;51.120;3.702;2022-09-29T18:24:33;5.43;;;4.50;;
25687;SDS011;17407;51.120;3.702;2022-09-29T18:27:43;7.47;;;5.35;;
25687;SDS011;17407;51.120;3.702;2022-09-29T18:31:03;7.35;;;4.68;;
25687;SDS011;17407;51.120;3.702;2022-09-29T18:34:14;5.03;;;3.90;;
25687;SDS011;17407;51.120;3.702;2022-09-29T18:37:24;7.38;;;5.97;;
25687;SDS011;17407;51.120;3.702;2022-09-29T18:40:34;6.75;;;4.55;;
25687;SDS011;17407;51.120;3.702;2022-09-29T18:43:43;8.52;;;5.50;;
25687;SDS011;17407;51.120;3.702;2022-09-29T18:46:53;12.52;;;5.75;;
25687;SDS011;17407;51.120;3.702;2022-09-29T18:50:05;9.38;;;5.90;;
25687;SDS011;17407;51.120;3.702;2022-09-29T18:53:14;8.95;;;6.38;;
25687;SDS011;17407;51.120;3.702;2022-09-29T18:56:24;10.02;;;6.55;;
25687;SDS011;17407;51.120;3.702;2022-09-29T18:59:33;7.93;;;6.88;;
25687;SDS011;17407;51.120;3.702;2022-09-29T19:02:44;8.52;;;6.38;;
25687;SDS011;17407;51.120;3.702;2022-09-29T19:06:10;8.57;;;5.78;;
25687;SDS011;17407;51.120;3.702;2022-09-29T19:09:22;8.10;;;5.78;;
25687;SDS011;17407;51.120;3.702;2022-09-29T19:12:31;9.95;;;7.25;;
25687;SDS011;17407;51.120;3.702;2022-09-29T19:15:40;9.00;;;6.93;;
25687;SDS011;17407;51.120;3.702;2022-09-29T19:36:55;8.23;;;6.20;;
25687;SDS011;17407;51.120;3.702;2022-09-29T19:40:06;7.15;;;5.68;;
25687;SDS011;17407;51.120;3.702;2022-09-29T19:43:17;8.85;;;6.70;;
25687;SDS011;17407;51.120;3.702;2022-09-29T19:46:26;8.27;;;7.13;;
25687;SDS011;17407;51.120;3.702;2022-09-29T19:49:35;8.20;;;7.20;;
25687;SDS011;17407;51.120;3.702;2022-09-29T19:52:44;10.18;;;7.20;;
25687;SDS011;17407;51.120;3.702;2022-09-29T19:55:53;7.00;;;6.30;;
25687;SDS011;17407;51.120;3.702;2022-09-29T19:59:03;4.28;;;3.92;;
25687;SDS011;17407;51.120;3.702;2022-09-29T20:02:13;7.32;;;5.93;;
25687;SDS011;17407;51.120;3.702;2022-09-29T20:09:06;9.43;;;5.75;;
25687;SDS011;17407;51.120;3.702;2022-09-29T20:12:15;8.38;;;6.13;;
25687;SDS011;17407;51.120;3.702;2022-09-29T20:15:25;8.00;;;6.18;;
25687;SDS011;17407;51.120;3.702;2022-09-29T20:18:35;9.30;;;6.40;;
25687;SDS011;17407;51.120;3.702;2022-09-29T20:21:45;7.95;;;6.35;;
25687;SDS011;17407;51.120;3.702;2022-09-29T20:24:53;8.25;;;6.60;;
25687;SDS011;17407;51.120;3.702;2022-09-29T20:28:03;6.00;;;5.32;;
25687;SDS011;17407;51.120;3.702;2022-09-29T20:34:41;10.13;;;6.78;;
25687;SDS011;17407;51.120;3.702;2022-09-29T20:37:50;13.07;;;8.68;;
25687;SDS011;17407;51.120;3.702;2022-09-29T20:41:00;9.25;;;8.25;;
25687;SDS011;17407;51.120;3.702;2022-09-29T20:44:10;11.65;;;7.82;;
25687;SDS011;17407;51.120;3.702;2022-09-29T20:47:23;14.20;;;9.50;;
25687;SDS011;17407;51.120;3.702;2022-09-29T20:50:32;12.18;;;8.38;;
25687;SDS011;17407;51.120;3.702;2022-09-29T20:53:43;10.68;;;9.18;;
25687;SDS011;17407;51.120;3.702;2022-09-29T20:56:52;12.35;;;8.48;;
25687;SDS011;17407;51.120;3.702;2022-09-29T21:00:02;19.05;;;10.23;;
